sensor_id;sensor_type;location;lat;lon;timestamp;pressure;altitude;pressure_sealevel;temperature
67501;BMP180;54349;52.528;19.760;2023-06-26T00:01:10;100587.80;;;18.98
67501;BMP180;54349;52.528;19.760;2023-06-26T00:03:52;100590.20;;;19.50
67501;BMP180;54349;52.528;19.760;2023-06-26T00:06:20;100587.60;;;19.96
67501;BMP180;54349;52.528;19.760;2023-06-26T00:08:49;100587.40;;;20.30
67501;BMP180;54349;52.528;19.760;2023-06-26T00:11:17;100581.60;;;20.10
67501;BMP180;54349;52.528;19.760;2023-06-26T00:13:45;100584.60;;;19.72
67501;BMP180;54349;52.528;19.760;2023-06-26T00:16:14;100585.40;;;19.48
67501;BMP180;54349;52.528;19.760;2023-06-26T00:18:42;100579.60;;;19.20
67501;BMP180;54349;52.528;19.760;2023-06-26T00:21:10;100584.20;;;18.96
67501;BMP180;54349;52.528;19.760;2023-06-26T00:23:38;100581.80;;;18.96
67501;BMP180;54349;52.528;19.760;2023-06-26T00:26:07;100587.00;;;19.36
67501;BMP180;54349;52.528;19.760;2023-06-26T00:28:37;100586.00;;;19.74
67501;BMP180;54349;52.528;19.760;2023-06-26T00:31:05;100588.00;;;20.10
67501;BMP180;54349;52.528;19.760;2023-06-26T00:33:34;100588.20;;;20.10
67501;BMP180;54349;52.528;19.760;2023-06-26T00:36:02;100591.60;;;19.70
67501;BMP180;54349;52.528;19.760;2023-06-26T00:38:31;100594.80;;;19.38
67501;BMP180;54349;52.528;19.760;2023-06-26T00:40:59;100586.80;;;19.10
67501;BMP180;54349;52.528;19.760;2023-06-26T00:43:27;100578.20;;;18.86
67501;BMP180;54349;52.528;19.760;2023-06-26T00:45:55;100581.40;;;19.00
67501;BMP180;54349;52.528;19.760;2023-06-26T00:48:24;100581.80;;;19.40
67501;BMP180;54349;52.528;19.760;2023-06-26T00:50:52;100583.80;;;19.80
67501;BMP180;54349;52.528;19.760;2023-06-26T00:53:21;100587.00;;;20.10
67501;BMP180;54349;52.528;19.760;2023-06-26T00:55:50;100590.00;;;20.20
67501;BMP180;54349;52.528;19.760;2023-06-26T00:58:20;100585.00;;;19.80
67501;BMP180;54349;52.528;19.760;2023-06-26T01:00:51;100581.20;;;19.42
67501;BMP180;54349;52.528;19.760;2023-06-26T01:03:21;100577.00;;;19.14
67501;BMP180;54349;52.528;19.760;2023-06-26T01:05:56;100570.60;;;18.94
67501;BMP180;54349;52.528;19.760;2023-06-26T01:08:25;100571.80;;;19.22
67501;BMP180;54349;52.528;19.760;2023-06-26T01:10:54;100571.20;;;19.60
67501;BMP180;54349;52.528;19.760;2023-06-26T01:13:23;100570.20;;;19.90
67501;BMP180;54349;52.528;19.760;2023-06-26T01:15:52;100567.80;;;20.20
67501;BMP180;54349;52.528;19.760;2023-06-26T01:18:21;100566.60;;;20.10
67501;BMP180;54349;52.528;19.760;2023-06-26T01:20:50;100565.60;;;19.70
67501;BMP180;54349;52.528;19.760;2023-06-26T01:23:24;100564.20;;;19.34
67501;BMP180;54349;52.528;19.760;2023-06-26T01:28:43;100557.80;;;19.26
67501;BMP180;54349;52.528;19.760;2023-06-26T01:31:12;100560.40;;;19.60
67501;BMP180;54349;52.528;19.760;2023-06-26T01:33:41;100560.40;;;19.90
67501;BMP180;54349;52.528;19.760;2023-06-26T01:36:10;100556.80;;;20.12
67501;BMP180;54349;52.528;19.760;2023-06-26T01:38:38;100552.80;;;19.82
67501;BMP180;54349;52.528;19.760;2023-06-26T01:41:07;100548.80;;;19.40
67501;BMP180;54349;52.528;19.760;2023-06-26T01:46:59;100548.40;;;19.46
67501;BMP180;54349;52.528;19.760;2023-06-26T01:49:46;100544.40;;;19.80
67501;BMP180;54349;52.528;19.760;2023-06-26T01:55:03;100541.80;;;20.04
67501;BMP180;54349;52.528;19.760;2023-06-26T01:57:32;100540.00;;;19.56
67501;BMP180;54349;52.528;19.760;2023-06-26T02:00:03;100538.80;;;19.20
67501;BMP180;54349;52.528;19.760;2023-06-26T02:02:41;100537.40;;;19.20
67501;BMP180;54349;52.528;19.760;2023-06-26T02:05:13;100536.80;;;19.50
67501;BMP180;54349;52.528;19.760;2023-06-26T02:07:42;100537.40;;;19.80
67501;BMP180;54349;52.528;19.760;2023-06-26T02:10:11;100535.40;;;20.08
67501;BMP180;54349;52.528;19.760;2023-06-26T02:12:40;100535.80;;;19.96
67501;BMP180;54349;52.528;19.760;2023-06-26T02:15:08;100532.80;;;19.50
67501;BMP180;54349;52.528;19.760;2023-06-26T02:17:37;100531.00;;;19.12
67501;BMP180;54349;52.528;19.760;2023-06-26T02:20:06;100529.40;;;19.24
67501;BMP180;54349;52.528;19.760;2023-06-26T02:22:36;100527.80;;;19.56
67501;BMP180;54349;52.528;19.760;2023-06-26T02:25:05;100526.60;;;19.80
67501;BMP180;54349;52.528;19.760;2023-06-26T02:27:33;100522.60;;;20.10
67501;BMP180;54349;52.528;19.760;2023-06-26T02:30:02;100521.80;;;20.10
67501;BMP180;54349;52.528;19.760;2023-06-26T02:32:30;100520.00;;;19.66
67501;BMP180;54349;52.528;19.760;2023-06-26T02:34:58;100520.80;;;19.24
67501;BMP180;54349;52.528;19.760;2023-06-26T02:37:27;100518.60;;;19.30
67501;BMP180;54349;52.528;19.760;2023-06-26T02:39:55;100518.20;;;19.56
67501;BMP180;54349;52.528;19.760;2023-06-26T02:42:23;100517.20;;;19.80
67501;BMP180;54349;52.528;19.760;2023-06-26T02:44:52;100516.20;;;20.10
67501;BMP180;54349;52.528;19.760;2023-06-26T02:47:21;100524.20;;;20.20
67501;BMP180;54349;52.528;19.760;2023-06-26T02:49:49;100520.00;;;19.72
67501;BMP180;54349;52.528;19.760;2023-06-26T02:52:18;100521.80;;;19.40
67501;BMP180;54349;52.528;19.760;2023-06-26T02:54:47;100526.60;;;19.60
67501;BMP180;54349;52.528;19.760;2023-06-26T02:57:16;100529.40;;;19.88
67501;BMP180;54349;52.528;19.760;2023-06-26T02:59:45;100527.80;;;20.10
67501;BMP180;54349;52.528;19.760;2023-06-26T03:02:14;100527.00;;;20.20
67501;BMP180;54349;52.528;19.760;2023-06-26T03:04:44;100527.80;;;19.74
67501;BMP180;54349;52.528;19.760;2023-06-26T03:07:14;100530.20;;;19.40
67501;BMP180;54349;52.528;19.760;2023-06-26T03:09:42;100531.20;;;19.58
67501;BMP180;54349;52.528;19.760;2023-06-26T03:12:10;100532.20;;;19.80
67501;BMP180;54349;52.528;19.760;2023-06-26T03:14:39;100527.80;;;20.08
67501;BMP180;54349;52.528;19.760;2023-06-26T03:17:07;100531.20;;;20.30
67501;BMP180;54349;52.528;19.760;2023-06-26T03:19:36;100531.60;;;20.08
67501;BMP180;54349;52.528;19.760;2023-06-26T03:22:16;100533.00;;;19.54
67501;BMP180;54349;52.528;19.760;2023-06-26T03:24:45;100528.80;;;19.30
67501;BMP180;54349;52.528;19.760;2023-06-26T03:27:16;100529.40;;;19.50
67501;BMP180;54349;52.528;19.760;2023-06-26T03:29:48;100527.80;;;19.80
67501;BMP180;54349;52.528;19.760;2023-06-26T03:32:16;100530.80;;;20.04
67501;BMP180;54349;52.528;19.760;2023-06-26T03:34:45;100527.80;;;20.22
67501;BMP180;54349;52.528;19.760;2023-06-26T03:37:14;100529.60;;;19.98
67501;BMP180;54349;52.528;19.760;2023-06-26T03:39:43;100527.20;;;19.50
67501;BMP180;54349;52.528;19.760;2023-06-26T03:42:11;100531.40;;;19.54
67501;BMP180;54349;52.528;19.760;2023-06-26T03:44:40;100531.80;;;19.80
67501;BMP180;54349;52.528;19.760;2023-06-26T03:47:09;100530.80;;;20.02
67501;BMP180;54349;52.528;19.760;2023-06-26T03:49:37;100534.60;;;20.22
67501;BMP180;54349;52.528;19.760;2023-06-26T03:52:06;100527.00;;;20.22
67501;BMP180;54349;52.528;19.760;2023-06-26T03:54:34;100529.60;;;19.78
67501;BMP180;54349;52.528;19.760;2023-06-26T03:57:03;100531.80;;;19.38
67501;BMP180;54349;52.528;19.760;2023-06-26T03:59:32;100531.00;;;19.42
67501;BMP180;54349;52.528;19.760;2023-06-26T04:02:00;100531.60;;;19.70
67501;BMP180;54349;52.528;19.760;2023-06-26T04:04:29;100532.60;;;19.92
67501;BMP180;54349;52.528;19.760;2023-06-26T04:06:58;100537.20;;;20.18
67501;BMP180;54349;52.528;19.760;2023-06-26T04:09:28;100537.20;;;20.20
67501;BMP180;54349;52.528;19.760;2023-06-26T04:11:57;100537.80;;;19.70
67501;BMP180;54349;52.528;19.760;2023-06-26T04:14:25;100538.60;;;19.30
67501;BMP180;54349;52.528;19.760;2023-06-26T04:16:54;100542.00;;;19.36
67501;BMP180;54349;52.528;19.760;2023-06-26T04:19:22;100545.00;;;19.60
67501;BMP180;54349;52.528;19.760;2023-06-26T04:21:50;100545.80;;;19.88
67501;BMP180;54349;52.528;19.760;2023-06-26T04:24:19;100539.40;;;20.10
67501;BMP180;54349;52.528;19.760;2023-06-26T04:26:47;100544.60;;;19.98
67501;BMP180;54349;52.528;19.760;2023-06-26T04:29:15;100543.80;;;19.52
67501;BMP180;54349;52.528;19.760;2023-06-26T04:31:43;100542.20;;;19.20
67501;BMP180;54349;52.528;19.760;2023-06-26T04:34:14;100547.20;;;19.30
67501;BMP180;54349;52.528;19.760;2023-06-26T04:36:43;100550.00;;;19.60
67501;BMP180;54349;52.528;19.760;2023-06-26T04:39:16;100546.40;;;19.88
67501;BMP180;54349;52.528;19.760;2023-06-26T04:41:44;100542.40;;;20.10
67501;BMP180;54349;52.528;19.760;2023-06-26T04:44:13;100544.80;;;19.82
67501;BMP180;54349;52.528;19.760;2023-06-26T04:46:41;100542.60;;;19.40
67501;BMP180;54349;52.528;19.760;2023-06-26T04:49:09;100540.00;;;19.20
67501;BMP180;54349;52.528;19.760;2023-06-26T04:51:38;100541.60;;;19.40
67501;BMP180;54349;52.528;19.760;2023-06-26T04:54:12;100542.60;;;19.70
67501;BMP180;54349;52.528;19.760;2023-06-26T04:56:41;100540.20;;;19.94
67501;BMP180;54349;52.528;19.760;2023-06-26T04:59:09;100539.00;;;20.08
67501;BMP180;54349;52.528;19.760;2023-06-26T05:01:41;100543.60;;;19.70
67501;BMP180;54349;52.528;19.760;2023-06-26T05:04:09;100542.60;;;19.30
67501;BMP180;54349;52.528;19.760;2023-06-26T05:06:37;100541.20;;;19.10
67501;BMP180;54349;52.528;19.760;2023-06-26T05:09:05;100539.20;;;19.30
67501;BMP180;54349;52.528;19.760;2023-06-26T05:11:34;100543.40;;;19.60
67501;BMP180;54349;52.528;19.760;2023-06-26T05:14:03;100540.20;;;19.80
67501;BMP180;54349;52.528;19.760;2023-06-26T05:16:35;100537.00;;;20.08
67501;BMP180;54349;52.528;19.760;2023-06-26T05:19:03;100539.80;;;19.90
67501;BMP180;54349;52.528;19.760;2023-06-26T05:21:32;100536.20;;;19.50
67501;BMP180;54349;52.528;19.760;2023-06-26T05:24:02;100536.40;;;19.14
67501;BMP180;54349;52.528;19.760;2023-06-26T05:26:31;100531.00;;;19.24
67501;BMP180;54349;52.528;19.760;2023-06-26T05:28:59;100533.60;;;19.52
67501;BMP180;54349;52.528;19.760;2023-06-26T05:31:30;100533.80;;;19.80
67501;BMP180;54349;52.528;19.760;2023-06-26T05:34:03;100536.00;;;20.00
67501;BMP180;54349;52.528;19.760;2023-06-26T05:36:33;100532.40;;;19.80
67501;BMP180;54349;52.528;19.760;2023-06-26T05:39:02;100532.00;;;19.42
67501;BMP180;54349;52.528;19.760;2023-06-26T05:41:31;100530.80;;;19.12
67501;BMP180;54349;52.528;19.760;2023-06-26T05:44:00;100532.80;;;19.30
67501;BMP180;54349;52.528;19.760;2023-06-26T05:46:28;100528.80;;;19.60
67501;BMP180;54349;52.528;19.760;2023-06-26T05:48:56;100527.40;;;19.84
67501;BMP180;54349;52.528;19.760;2023-06-26T05:51:25;100524.20;;;20.10
67501;BMP180;54349;52.528;19.760;2023-06-26T05:53:54;100524.00;;;20.02
67501;BMP180;54349;52.528;19.760;2023-06-26T05:56:22;100522.40;;;19.62
67501;BMP180;54349;52.528;19.760;2023-06-26T05:58:52;100518.60;;;19.30
67501;BMP180;54349;52.528;19.760;2023-06-26T06:01:21;100521.60;;;19.08
67501;BMP180;54349;52.528;19.760;2023-06-26T06:03:49;100519.80;;;19.30
67501;BMP180;54349;52.528;19.760;2023-06-26T06:06:18;100521.80;;;19.60
67501;BMP180;54349;52.528;19.760;2023-06-26T06:08:46;100523.40;;;19.84
67501;BMP180;54349;52.528;19.760;2023-06-26T06:11:16;100517.80;;;20.08
67501;BMP180;54349;52.528;19.760;2023-06-26T06:13:45;100518.60;;;19.80
67501;BMP180;54349;52.528;19.760;2023-06-26T06:16:13;100520.60;;;19.50
67501;BMP180;54349;52.528;19.760;2023-06-26T06:18:41;100518.40;;;19.22
67501;BMP180;54349;52.528;19.760;2023-06-26T06:21:09;100514.80;;;19.00
67501;BMP180;54349;52.528;19.760;2023-06-26T06:23:38;100512.20;;;18.80
67501;BMP180;54349;52.528;19.760;2023-06-26T06:26:06;100511.80;;;18.70
67501;BMP180;54349;52.528;19.760;2023-06-26T06:28:34;100514.60;;;19.10
67501;BMP180;54349;52.528;19.760;2023-06-26T06:31:02;100509.20;;;19.52
67501;BMP180;54349;52.528;19.760;2023-06-26T06:33:31;100509.80;;;19.90
67501;BMP180;54349;52.528;19.760;2023-06-26T06:35:59;100512.40;;;20.20
67501;BMP180;54349;52.528;19.760;2023-06-26T06:38:28;100510.00;;;19.90
67501;BMP180;54349;52.528;19.760;2023-06-26T06:40:56;100510.80;;;19.60
67501;BMP180;54349;52.528;19.760;2023-06-26T06:43:24;100507.80;;;19.36
67501;BMP180;54349;52.528;19.760;2023-06-26T06:45:52;100504.00;;;19.10
67501;BMP180;54349;52.528;19.760;2023-06-26T06:48:21;100503.20;;;18.92
67501;BMP180;54349;52.528;19.760;2023-06-26T06:50:50;100501.80;;;18.80
67501;BMP180;54349;52.528;19.760;2023-06-26T06:53:19;100501.80;;;18.98
67501;BMP180;54349;52.528;19.760;2023-06-26T06:55:51;100505.00;;;19.42
67501;BMP180;54349;52.528;19.760;2023-06-26T06:58:20;100504.00;;;19.80
67501;BMP180;54349;52.528;19.760;2023-06-26T07:00:49;100504.40;;;20.18
67501;BMP180;54349;52.528;19.760;2023-06-26T07:03:19;100507.00;;;20.12
67501;BMP180;54349;52.528;19.760;2023-06-26T07:05:49;100504.40;;;19.90
67501;BMP180;54349;52.528;19.760;2023-06-26T07:08:17;100501.60;;;19.66
67501;BMP180;54349;52.528;19.760;2023-06-26T07:10:47;100502.00;;;19.46
67501;BMP180;54349;52.528;19.760;2023-06-26T07:13:15;100502.00;;;19.30
67501;BMP180;54349;52.528;19.760;2023-06-26T07:15:45;100502.80;;;19.10
67501;BMP180;54349;52.528;19.760;2023-06-26T07:18:16;100500.60;;;19.00
67501;BMP180;54349;52.528;19.760;2023-06-26T07:20:44;100496.60;;;18.82
67501;BMP180;54349;52.528;19.760;2023-06-26T07:23:13;100501.60;;;18.70
67501;BMP180;54349;52.528;19.760;2023-06-26T07:25:41;100496.20;;;18.60
67501;BMP180;54349;52.528;19.760;2023-06-26T07:28:12;100494.60;;;18.50
67501;BMP180;54349;52.528;19.760;2023-06-26T07:30:41;100495.80;;;18.94
67501;BMP180;54349;52.528;19.760;2023-06-26T07:33:09;100497.40;;;19.42
67501;BMP180;54349;52.528;19.760;2023-06-26T07:35:38;100497.20;;;19.84
67501;BMP180;54349;52.528;19.760;2023-06-26T07:38:07;100497.40;;;20.20
67501;BMP180;54349;52.528;19.760;2023-06-26T07:40:36;100497.60;;;20.10
67501;BMP180;54349;52.528;19.760;2023-06-26T07:43:05;100495.80;;;19.90
67501;BMP180;54349;52.528;19.760;2023-06-26T07:45:34;100495.00;;;19.70
67501;BMP180;54349;52.528;19.760;2023-06-26T07:48:03;100492.60;;;19.50
67501;BMP180;54349;52.528;19.760;2023-06-26T07:50:32;100493.40;;;19.30
67501;BMP180;54349;52.528;19.760;2023-06-26T07:53:03;100492.40;;;19.20
67501;BMP180;54349;52.528;19.760;2023-06-26T07:55:33;100487.40;;;19.04
67501;BMP180;54349;52.528;19.760;2023-06-26T07:58:02;100482.60;;;18.90
67501;BMP180;54349;52.528;19.760;2023-06-26T08:00:31;100488.60;;;18.80
67501;BMP180;54349;52.528;19.760;2023-06-26T08:03:00;100486.40;;;18.70
67501;BMP180;54349;52.528;19.760;2023-06-26T08:05:29;100481.00;;;18.64
67501;BMP180;54349;52.528;19.760;2023-06-26T08:07:59;100483.00;;;18.60
67501;BMP180;54349;52.528;19.760;2023-06-26T08:10:30;100484.00;;;18.50
67501;BMP180;54349;52.528;19.760;2023-06-26T08:13:00;100483.60;;;18.42
67501;BMP180;54349;52.528;19.760;2023-06-26T08:15:32;100476.60;;;18.40
67501;BMP180;54349;52.528;19.760;2023-06-26T08:18:01;100480.20;;;18.30
67501;BMP180;54349;52.528;19.760;2023-06-26T08:20:30;100478.20;;;18.50
67501;BMP180;54349;52.528;19.760;2023-06-26T08:22:58;100480.00;;;19.04
67501;BMP180;54349;52.528;19.760;2023-06-26T08:25:26;100483.00;;;19.56
67501;BMP180;54349;52.528;19.760;2023-06-26T08:27:55;100480.00;;;19.98
67501;BMP180;54349;52.528;19.760;2023-06-26T08:30:24;100481.80;;;20.26
67501;BMP180;54349;52.528;19.760;2023-06-26T08:32:55;100481.20;;;20.08
67501;BMP180;54349;52.528;19.760;2023-06-26T08:35:24;100476.60;;;19.80
67501;BMP180;54349;52.528;19.760;2023-06-26T08:37:52;100475.60;;;19.52
67501;BMP180;54349;52.528;19.760;2023-06-26T08:40:22;100479.20;;;19.40
67501;BMP180;54349;52.528;19.760;2023-06-26T08:42:51;100474.60;;;19.20
67501;BMP180;54349;52.528;19.760;2023-06-26T08:45:21;100474.80;;;19.10
67501;BMP180;54349;52.528;19.760;2023-06-26T08:47:53;100472.40;;;19.00
67501;BMP180;54349;52.528;19.760;2023-06-26T08:50:23;100468.80;;;18.90
67501;BMP180;54349;52.528;19.760;2023-06-26T08:52:56;100468.00;;;18.90
67501;BMP180;54349;52.528;19.760;2023-06-26T08:55:28;100471.80;;;18.80
67501;BMP180;54349;52.528;19.760;2023-06-26T08:57:57;100466.80;;;18.74
67501;BMP180;54349;52.528;19.760;2023-06-26T09:00:25;100457.60;;;18.70
67501;BMP180;54349;52.528;19.760;2023-06-26T09:02:55;100451.40;;;18.60
67501;BMP180;54349;52.528;19.760;2023-06-26T09:05:26;100450.00;;;18.60
67501;BMP180;54349;52.528;19.760;2023-06-26T09:07:55;100443.60;;;18.54
67501;BMP180;54349;52.528;19.760;2023-06-26T09:10:25;100445.60;;;18.50
67501;BMP180;54349;52.528;19.760;2023-06-26T09:12:56;100447.80;;;18.50
67501;BMP180;54349;52.528;19.760;2023-06-26T09:15:27;100443.80;;;18.48
67501;BMP180;54349;52.528;19.760;2023-06-26T09:17:58;100449.00;;;18.40
67501;BMP180;54349;52.528;19.760;2023-06-26T09:20:30;100439.60;;;18.40
67501;BMP180;54349;52.528;19.760;2023-06-26T09:23:01;100442.80;;;18.40
67501;BMP180;54349;52.528;19.760;2023-06-26T09:25:30;100442.40;;;18.40
67501;BMP180;54349;52.528;19.760;2023-06-26T09:27:59;100443.40;;;18.38
67501;BMP180;54349;52.528;19.760;2023-06-26T09:30:27;100437.80;;;18.36
67501;BMP180;54349;52.528;19.760;2023-06-26T09:32:55;100440.60;;;18.40
67501;BMP180;54349;52.528;19.760;2023-06-26T09:35:27;100435.80;;;18.38
67501;BMP180;54349;52.528;19.760;2023-06-26T09:37:55;100437.40;;;18.40
67501;BMP180;54349;52.528;19.760;2023-06-26T09:40:26;100432.20;;;18.40
67501;BMP180;54349;52.528;19.760;2023-06-26T09:43:03;100431.80;;;18.40
67501;BMP180;54349;52.528;19.760;2023-06-26T09:45:34;100427.20;;;18.40
67501;BMP180;54349;52.528;19.760;2023-06-26T09:48:08;100430.80;;;18.40
67501;BMP180;54349;52.528;19.760;2023-06-26T09:50:41;100432.00;;;18.40
67501;BMP180;54349;52.528;19.760;2023-06-26T09:53:20;100440.00;;;18.40
67501;BMP180;54349;52.528;19.760;2023-06-26T09:55:48;100440.00;;;18.40
67501;BMP180;54349;52.528;19.760;2023-06-26T09:58:17;100436.80;;;18.40
67501;BMP180;54349;52.528;19.760;2023-06-26T10:00:46;100434.80;;;18.40
67501;BMP180;54349;52.528;19.760;2023-06-26T10:03:14;100432.60;;;18.40
67501;BMP180;54349;52.528;19.760;2023-06-26T10:05:44;100429.60;;;18.40
67501;BMP180;54349;52.528;19.760;2023-06-26T10:08:15;100429.20;;;18.44
67501;BMP180;54349;52.528;19.760;2023-06-26T10:10:46;100426.60;;;18.50
67501;BMP180;54349;52.528;19.760;2023-06-26T10:13:22;100421.60;;;18.52
67501;BMP180;54349;52.528;19.760;2023-06-26T10:15:51;100422.20;;;18.60
67501;BMP180;54349;52.528;19.760;2023-06-26T10:18:24;100422.80;;;18.60
67501;BMP180;54349;52.528;19.760;2023-06-26T10:20:55;100417.00;;;18.60
67501;BMP180;54349;52.528;19.760;2023-06-26T10:23:26;100417.20;;;18.60
67501;BMP180;54349;52.528;19.760;2023-06-26T10:25:59;100416.00;;;18.60
67501;BMP180;54349;52.528;19.760;2023-06-26T10:28:33;100410.40;;;18.60
67501;BMP180;54349;52.528;19.760;2023-06-26T10:31:03;100407.40;;;18.60
67501;BMP180;54349;52.528;19.760;2023-06-26T10:33:34;100398.80;;;18.62
67501;BMP180;54349;52.528;19.760;2023-06-26T10:36:17;100395.60;;;18.70
67501;BMP180;54349;52.528;19.760;2023-06-26T10:39:04;100399.80;;;18.74
67501;BMP180;54349;52.528;19.760;2023-06-26T10:41:40;100401.80;;;18.80
67501;BMP180;54349;52.528;19.760;2023-06-26T10:44:40;100389.20;;;18.90
67501;BMP180;54349;52.528;19.760;2023-06-26T10:47:10;100386.40;;;18.90
67501;BMP180;54349;52.528;19.760;2023-06-26T10:49:46;100387.60;;;19.00
67501;BMP180;54349;52.528;19.760;2023-06-26T10:52:29;100386.40;;;19.10
67501;BMP180;54349;52.528;19.760;2023-06-26T10:54:58;100380.00;;;19.12
67501;BMP180;54349;52.528;19.760;2023-06-26T10:57:28;100374.20;;;19.20
67501;BMP180;54349;52.528;19.760;2023-06-26T11:00:10;100375.80;;;19.30
67501;BMP180;54349;52.528;19.760;2023-06-26T11:02:52;100379.80;;;19.30
67501;BMP180;54349;52.528;19.760;2023-06-26T11:05:26;100373.80;;;19.30
67501;BMP180;54349;52.528;19.760;2023-06-26T11:08:09;100380.20;;;19.30
67501;BMP180;54349;52.528;19.760;2023-06-26T11:10:52;100370.80;;;19.30
67501;BMP180;54349;52.528;19.760;2023-06-26T11:13:22;100370.40;;;19.30
67501;BMP180;54349;52.528;19.760;2023-06-26T11:15:50;100367.00;;;19.30
67501;BMP180;54349;52.528;19.760;2023-06-26T11:18:20;100363.40;;;19.30
67501;BMP180;54349;52.528;19.760;2023-06-26T11:20:48;100365.80;;;19.30
67501;BMP180;54349;52.528;19.760;2023-06-26T11:23:21;100362.20;;;19.30
67501;BMP180;54349;52.528;19.760;2023-06-26T11:25:52;100356.20;;;19.22
67501;BMP180;54349;52.528;19.760;2023-06-26T11:28:22;100357.40;;;19.20
67501;BMP180;54349;52.528;19.760;2023-06-26T11:30:51;100356.40;;;19.20
67501;BMP180;54349;52.528;19.760;2023-06-26T11:33:26;100355.60;;;19.20
67501;BMP180;54349;52.528;19.760;2023-06-26T11:35:55;100360.40;;;19.20
67501;BMP180;54349;52.528;19.760;2023-06-26T11:38:24;100354.00;;;19.30
67501;BMP180;54349;52.528;19.760;2023-06-26T11:40:52;100356.40;;;19.30
67501;BMP180;54349;52.528;19.760;2023-06-26T11:43:21;100349.80;;;19.30
67501;BMP180;54349;52.528;19.760;2023-06-26T11:45:49;100348.80;;;19.30
67501;BMP180;54349;52.528;19.760;2023-06-26T11:48:17;100350.40;;;19.20
67501;BMP180;54349;52.528;19.760;2023-06-26T11:50:50;100347.40;;;19.20
67501;BMP180;54349;52.528;19.760;2023-06-26T11:53:19;100346.80;;;19.20
67501;BMP180;54349;52.528;19.760;2023-06-26T11:55:47;100340.80;;;19.20
67501;BMP180;54349;52.528;19.760;2023-06-26T11:58:15;100339.80;;;19.22
67501;BMP180;54349;52.528;19.760;2023-06-26T12:00:44;100333.20;;;19.26
67501;BMP180;54349;52.528;19.760;2023-06-26T12:03:12;100340.00;;;19.30
67501;BMP180;54349;52.528;19.760;2023-06-26T12:05:42;100333.40;;;19.30
67501;BMP180;54349;52.528;19.760;2023-06-26T12:08:14;100335.80;;;19.30
67501;BMP180;54349;52.528;19.760;2023-06-26T12:10:43;100332.00;;;19.30
67501;BMP180;54349;52.528;19.760;2023-06-26T12:13:13;100334.20;;;19.30
67501;BMP180;54349;52.528;19.760;2023-06-26T12:15:42;100328.80;;;19.30
67501;BMP180;54349;52.528;19.760;2023-06-26T12:18:10;100326.60;;;19.24
67501;BMP180;54349;52.528;19.760;2023-06-26T12:20:40;100317.00;;;19.30
67501;BMP180;54349;52.528;19.760;2023-06-26T12:23:12;100315.60;;;19.30
67501;BMP180;54349;52.528;19.760;2023-06-26T12:25:42;100312.60;;;19.20
67501;BMP180;54349;52.528;19.760;2023-06-26T12:28:18;100312.60;;;19.20
67501;BMP180;54349;52.528;19.760;2023-06-26T12:30:47;100307.00;;;19.20
67501;BMP180;54349;52.528;19.760;2023-06-26T12:33:15;100305.40;;;19.30
67501;BMP180;54349;52.528;19.760;2023-06-26T12:35:45;100308.00;;;19.30
67501;BMP180;54349;52.528;19.760;2023-06-26T12:38:13;100305.60;;;19.20
67501;BMP180;54349;52.528;19.760;2023-06-26T12:40:46;100300.80;;;19.20
67501;BMP180;54349;52.528;19.760;2023-06-26T12:43:26;100306.00;;;19.26
67501;BMP180;54349;52.528;19.760;2023-06-26T12:45:55;100296.80;;;19.30
67501;BMP180;54349;52.528;19.760;2023-06-26T12:48:40;100294.00;;;19.30
67501;BMP180;54349;52.528;19.760;2023-06-26T12:51:12;100300.00;;;19.32
67501;BMP180;54349;52.528;19.760;2023-06-26T12:53:42;100288.60;;;19.40
67501;BMP180;54349;52.528;19.760;2023-06-26T12:56:10;100288.60;;;19.40
67501;BMP180;54349;52.528;19.760;2023-06-26T12:58:39;100285.80;;;19.40
67501;BMP180;54349;52.528;19.760;2023-06-26T13:01:07;100285.40;;;19.46
67501;BMP180;54349;52.528;19.760;2023-06-26T13:03:43;100282.40;;;19.50
67501;BMP180;54349;52.528;19.760;2023-06-26T13:06:11;100281.20;;;19.50
67501;BMP180;54349;52.528;19.760;2023-06-26T13:08:41;100279.00;;;19.50
67501;BMP180;54349;52.528;19.760;2023-06-26T13:11:11;100276.20;;;19.60
67501;BMP180;54349;52.528;19.760;2023-06-26T13:13:39;100269.80;;;19.60
67501;BMP180;54349;52.528;19.760;2023-06-26T13:16:08;100266.80;;;19.60
67501;BMP180;54349;52.528;19.760;2023-06-26T13:18:36;100269.80;;;19.60
67501;BMP180;54349;52.528;19.760;2023-06-26T13:21:04;100266.80;;;19.60
67501;BMP180;54349;52.528;19.760;2023-06-26T13:23:32;100263.60;;;19.70
67501;BMP180;54349;52.528;19.760;2023-06-26T13:26:01;100251.40;;;19.70
67501;BMP180;54349;52.528;19.760;2023-06-26T13:28:29;100250.60;;;19.80
67501;BMP180;54349;52.528;19.760;2023-06-26T13:30:58;100253.60;;;19.80
67501;BMP180;54349;52.528;19.760;2023-06-26T13:33:26;100249.00;;;19.88
67501;BMP180;54349;52.528;19.760;2023-06-26T13:35:54;100246.60;;;19.90
67501;BMP180;54349;52.528;19.760;2023-06-26T13:38:25;100247.80;;;19.90
67501;BMP180;54349;52.528;19.760;2023-06-26T13:40:54;100242.80;;;19.90
67501;BMP180;54349;52.528;19.760;2023-06-26T13:43:24;100238.60;;;19.90
67501;BMP180;54349;52.528;19.760;2023-06-26T13:45:53;100239.00;;;19.90
67501;BMP180;54349;52.528;19.760;2023-06-26T13:48:22;100240.20;;;19.90
67501;BMP180;54349;52.528;19.760;2023-06-26T13:50:53;100230.60;;;19.90
67501;BMP180;54349;52.528;19.760;2023-06-26T13:53:22;100240.40;;;19.90
67501;BMP180;54349;52.528;19.760;2023-06-26T13:55:50;100225.80;;;19.90
67501;BMP180;54349;52.528;19.760;2023-06-26T13:58:19;100224.40;;;19.88
67501;BMP180;54349;52.528;19.760;2023-06-26T14:00:49;100218.40;;;19.88
67501;BMP180;54349;52.528;19.760;2023-06-26T14:03:20;100217.40;;;19.84
67501;BMP180;54349;52.528;19.760;2023-06-26T14:05:49;100214.40;;;19.80
67501;BMP180;54349;52.528;19.760;2023-06-26T14:08:17;100211.60;;;19.80